createdAt,value
2019-04-20T00:00:56.023Z,77.70
2019-04-20T00:03:33.146Z,78.40
2019-04-20T00:05:57.593Z,80.90
2019-04-20T00:08:31.051Z,81.00
2019-04-20T00:11:07.094Z,82.40
2019-04-20T00:13:42.548Z,82.20
2019-04-20T00:16:04.221Z,81.40
2019-04-20T00:18:41.291Z,79.50
2019-04-20T00:21:24.921Z,79.90
2019-04-20T00:24:01.965Z,80.80
2019-04-20T00:27:00.687Z,82.30
2019-04-20T00:29:21.543Z,82.70
2019-04-20T00:31:45.461Z,82.50
2019-04-20T00:34:16.867Z,81.50
2019-04-20T00:36:39.223Z,81.90
2019-04-20T00:39:11.443Z,81.90
2019-04-20T00:41:49.891Z,80.40
2019-04-20T00:44:21.681Z,80.30
2019-04-20T00:46:56.910Z,80.40
2019-04-20T00:49:30.705Z,80.40
2019-04-20T00:52:14.589Z,80.60
2019-04-20T00:54:20.152Z,81.10
2019-04-20T00:56:51.928Z,79.70
2019-04-20T00:59:35.297Z,81.20
2019-04-20T01:02:14.072Z,80.90
2019-04-20T01:04:50.013Z,81.60
2019-04-20T01:07:20.270Z,81.60
2019-04-20T01:10:02.761Z,83.10
2019-04-20T01:12:35.583Z,87.50
2019-04-20T01:15:09.897Z,89.40
2019-04-20T01:17:40.989Z,90.00
2019-04-20T01:20:09.645Z,90.50
2019-04-20T01:22:50.970Z,90.50
2019-04-20T01:25:18.283Z,91.20
2019-04-20T01:28:04.508Z,91.50
2019-04-20T01:30:25.173Z,91.60
2019-04-20T01:33:02.427Z,91.40
2019-04-20T01:35:38.232Z,91.70
2019-04-20T01:38:11.304Z,92.70
2019-04-20T01:40:25.229Z,92.80
2019-04-20T01:42:55.426Z,92.50
2019-04-20T01:45:30.807Z,92.40
2019-04-20T01:47:59.445Z,92.80
2019-04-20T01:50:33.014Z,92.60
2019-04-20T01:53:11.501Z,92.10
2019-04-20T01:55:46.637Z,91.60
2019-04-20T01:58:40.790Z,91.40
2019-04-20T02:01:19.195Z,91.70
2019-04-20T02:04:03.213Z,91.20
2019-04-20T02:06:39.971Z,88.60
2019-04-20T02:09:14.778Z,90.60
2019-04-20T02:11:46.541Z,90.50
2019-04-20T02:14:14.284Z,90.30
2019-04-20T02:16:50.573Z,90.60
2019-04-20T02:19:30.523Z,90.40
2019-04-20T02:22:03.959Z,90.70
2019-04-20T02:24:19.985Z,90.80
2019-04-20T02:26:50.589Z,92.50
2019-04-20T02:29:46.180Z,94.10
2019-04-20T02:32:22.902Z,94.20
2019-04-20T02:35:25.050Z,94.50
2019-04-20T02:40:47.204Z,93.70
2019-04-20T02:43:12.014Z,93.10
2019-04-20T02:45:40.054Z,92.50
2019-04-20T02:48:16.010Z,92.00
2019-04-20T02:50:44.180Z,92.20
2019-04-20T02:53:20.312Z,91.90
2019-04-20T02:55:48.354Z,91.60
2019-04-20T02:58:18.765Z,92.30
2019-04-20T03:00:39.165Z,92.30
2019-04-20T03:03:03.234Z,92.70
2019-04-20T03:05:35.231Z,92.70
2019-04-20T03:08:08.717Z,92.80
2019-04-20T03:10:52.682Z,92.30
2019-04-20T03:13:22.748Z,91.90
2019-04-20T03:15:51.992Z,91.00
2019-04-20T03:18:23.555Z,90.10
2019-04-20T03:20:55.063Z,90.40
2019-04-20T03:23:30.053Z,91.40
2019-04-20T03:26:12.830Z,91.30
2019-04-20T03:28:54.067Z,90.90
2019-04-20T03:31:54.184Z,91.10
2019-04-20T03:36:49.529Z,90.30
2019-04-20T03:39:10.269Z,90.30
2019-04-20T03:41:28.200Z,90.40
2019-04-20T03:43:54.174Z,91.10
2019-04-20T03:46:35.698Z,91.40
2019-04-20T03:49:15.715Z,91.00
2019-04-20T03:51:53.322Z,91.30
2019-04-20T03:54:30.930Z,91.20
2019-04-20T03:57:38.186Z,90.90
2019-04-20T04:00:22.032Z,91.70
2019-04-20T04:03:16.579Z,92.20
2019-04-20T04:05:34.147Z,92.80
2019-04-20T04:08:02.298Z,92.80
2019-04-20T04:10:31.677Z,92.20
2019-04-20T04:13:11.592Z,92.60
2019-04-20T04:15:48.779Z,92.60
2019-04-20T04:18:25.500Z,92.40
2019-04-20T04:20:54.062Z,92.90
2019-04-20T04:23:38.061Z,93.50
2019-04-20T04:26:08.763Z,93.30
2019-04-20T04:28:41.070Z,93.40
2019-04-20T04:31:13.995Z,94.00
2019-04-20T04:36:15.489Z,94.90
2019-04-20T04:38:55.162Z,94.60
2019-04-20T04:41:24.012Z,94.60
2019-04-20T04:44:00.671Z,94.80
2019-04-20T04:46:05.873Z,95.50
2019-04-20T04:48:41.102Z,95.10
2019-04-20T04:51:15.804Z,94.80
2019-04-20T04:53:47.607Z,94.40
2019-04-20T04:56:14.918Z,94.50
2019-04-20T04:58:44.627Z,94.60
2019-04-20T05:01:21.715Z,94.30
2019-04-20T05:04:09.997Z,95.10
2019-04-20T05:06:34.424Z,95.30
2019-04-20T05:08:56.556Z,94.60
2019-04-20T05:11:24.223Z,94.70
2019-04-20T05:14:00.189Z,94.90
2019-04-20T05:16:46.027Z,94.60
2019-04-20T05:19:19.067Z,94.40
2019-04-20T05:24:37.287Z,94.50
2019-04-20T05:27:30.056Z,94.50
2019-04-20T05:29:44.706Z,94.40
2019-04-20T05:32:19.659Z,95.00
2019-04-20T05:35:11.151Z,95.20
2019-04-20T05:37:41.341Z,95.10
2019-04-20T05:40:18.427Z,95.10
2019-04-20T05:42:52.419Z,94.90
2019-04-20T05:45:20.625Z,94.80
2019-04-20T05:47:52.417Z,94.10
2019-04-20T05:50:29.234Z,94.00
2019-04-20T05:53:02.400Z,94.50
2019-04-20T05:55:26.687Z,93.10
2019-04-20T05:58:03.679Z,93.40
2019-04-20T06:00:34.228Z,93.90
2019-04-20T06:03:07.405Z,94.50
2019-04-20T06:05:48.923Z,94.30
2019-04-20T06:08:05.458Z,93.80
2019-04-20T06:10:48.073Z,93.70
2019-04-20T06:13:17.450Z,93.10
2019-04-20T06:15:54.022Z,92.90
2019-04-20T06:18:44.327Z,92.90
2019-04-20T06:21:27.764Z,92.90
2019-04-20T06:24:16.949Z,93.00
2019-04-20T06:26:53.981Z,93.20
2019-04-20T06:29:18.345Z,93.30
2019-04-20T06:31:51.911Z,91.40
2019-04-20T06:36:58.355Z,90.90
2019-04-20T06:42:09.839Z,88.70
2019-04-20T06:44:37.026Z,90.00
2019-04-20T06:50:00.442Z,86.90
2019-04-20T06:52:27.349Z,86.10
2019-04-20T06:55:28.950Z,85.70
2019-04-20T06:58:22.081Z,84.90
2019-04-20T07:00:17.180Z,84.40
2019-04-20T07:02:48.556Z,84.60
2019-04-20T07:05:18.499Z,83.40
2019-04-20T07:07:54.875Z,81.00
2019-04-20T07:10:27.176Z,74.30
2019-04-20T07:12:52.949Z,77.30
2019-04-20T07:15:23.171Z,78.60
2019-04-20T07:18:06.476Z,79.50
2019-04-20T07:20:55.322Z,77.90
2019-04-20T07:23:29.294Z,78.00
2019-04-20T07:25:55.619Z,79.20
2019-04-20T07:28:32.748Z,79.50
2019-04-20T07:30:55.288Z,77.50
2019-04-20T07:33:32.516Z,81.20
2019-04-20T07:35:57.980Z,81.00
2019-04-20T07:38:34.520Z,77.10
2019-04-20T07:41:02.474Z,74.50
2019-04-20T07:43:43.566Z,77.80
2019-04-20T07:46:10.392Z,80.70
2019-04-20T07:48:36.855Z,74.40
2019-04-20T07:51:02.714Z,73.60
2019-04-20T07:53:36.672Z,74.60
2019-04-20T07:56:11.523Z,74.30
2019-04-20T07:58:35.778Z,74.90
2019-04-20T08:01:30.130Z,71.40
2019-04-20T08:04:06.341Z,71.00
2019-04-20T08:06:25.052Z,73.40
2019-04-20T08:09:05.311Z,70.30
2019-04-20T08:11:38.022Z,70.50
2019-04-20T08:14:19.252Z,70.90
2019-04-20T08:19:16.319Z,68.10
2019-04-20T08:21:48.487Z,69.30
2019-04-20T08:24:17.698Z,67.40
2019-04-20T08:26:37.525Z,67.60
2019-04-20T08:29:20.598Z,66.40
2019-04-20T08:32:21.428Z,67.30
2019-04-20T08:34:56.606Z,65.80
2019-04-20T08:37:22.272Z,61.70
2019-04-20T08:40:01.559Z,63.00
2019-04-20T08:42:30.951Z,62.30
2019-04-20T08:45:04.934Z,56.90
2019-04-20T08:47:38.204Z,57.70
2019-04-20T08:50:29.512Z,58.40
2019-04-20T08:55:14.574Z,59.30
2019-04-20T08:57:31.380Z,59.80
2019-04-20T09:00:04.587Z,57.80
2019-04-20T09:02:34.870Z,57.00
2019-04-20T09:05:13.525Z,57.20
2019-04-20T09:07:48.929Z,56.70
2019-04-20T09:10:35.695Z,53.20
2019-04-20T09:12:57.368Z,53.60
2019-04-20T09:15:14.799Z,52.60
2019-04-20T09:18:13.558Z,50.80
2019-04-20T09:20:48.674Z,51.20
2019-04-20T09:23:26.514Z,50.50
2019-04-20T09:26:02.307Z,52.40
2019-04-20T09:28:27.348Z,52.20
2019-04-20T09:31:09.566Z,50.90
2019-04-20T09:34:13.344Z,49.60
2019-04-20T09:36:46.179Z,48.50
2019-04-20T09:39:21.090Z,48.70
2019-04-20T09:42:04.264Z,47.10
2019-04-20T09:44:37.514Z,44.20
2019-04-20T09:47:07.358Z,43.80
2019-04-20T09:49:49.167Z,42.70
2019-04-20T09:52:26.214Z,44.30
2019-04-20T09:55:00.444Z,39.20
2019-04-20T09:57:35.049Z,38.70
2019-04-20T10:00:04.358Z,40.50
2019-04-20T10:02:24.124Z,40.40
2019-04-20T10:04:49.422Z,38.50
2019-04-20T10:07:22.259Z,38.10
2019-04-20T10:09:52.101Z,38.80
2019-04-20T10:12:23.730Z,39.50
2019-04-20T10:14:57.594Z,40.60
2019-04-20T10:17:28.601Z,41.30
2019-04-20T10:19:57.862Z,36.50
2019-04-20T10:22:28.704Z,38.40
2019-04-20T10:25:00.003Z,40.10
2019-04-20T10:27:30.692Z,37.70
2019-04-20T10:30:03.789Z,35.90
2019-04-20T10:32:39.172Z,37.70
2019-04-20T10:35:04.557Z,36.40
2019-04-20T10:37:39.751Z,34.20
2019-04-20T10:40:11.486Z,37.10
2019-04-20T10:42:43.973Z,37.50
2019-04-20T10:45:14.966Z,36.50
2019-04-20T10:47:45.262Z,37.80
2019-04-20T10:50:16.762Z,36.00
2019-04-20T10:52:47.734Z,36.90
2019-04-20T10:55:18.708Z,35.50
2019-04-20T10:57:49.265Z,35.50
2019-04-20T11:00:24.159Z,35.50
2019-04-20T11:02:55.407Z,34.80
2019-04-20T11:05:26.513Z,33.60
2019-04-20T11:07:56.844Z,36.00
2019-04-20T11:10:29.278Z,36.30
2019-04-20T11:12:59.130Z,37.60
2019-04-20T11:15:30.398Z,36.00
2019-04-20T11:18:01.641Z,35.30
2019-04-20T11:20:33.220Z,34.10
2019-04-20T11:23:04.477Z,35.60
2019-04-20T11:25:34.444Z,34.70
2019-04-20T11:28:05.978Z,34.00
2019-04-20T11:30:36.235Z,35.30
2019-04-20T11:33:06.476Z,34.20
2019-04-20T11:35:39.320Z,33.00
2019-04-20T11:38:10.753Z,32.70
2019-04-20T11:40:41.197Z,31.80
2019-04-20T11:43:11.554Z,32.30
2019-04-20T11:45:42.714Z,33.70
2019-04-20T11:48:13.670Z,30.80
2019-04-20T11:50:43.853Z,31.40
2019-04-20T11:53:15.333Z,34.10
2019-04-20T11:55:46.591Z,30.70
2019-04-20T11:58:16.626Z,32.00
2019-04-20T12:00:59.388Z,31.30
2019-04-20T12:03:32.903Z,30.00
2019-04-20T12:06:01.647Z,31.30
2019-04-20T12:08:31.210Z,30.10
2019-04-20T12:11:18.836Z,29.00
2019-04-20T12:13:34.503Z,29.70
2019-04-20T12:16:05.692Z,29.60
2019-04-20T12:18:35.934Z,30.00
2019-04-20T12:21:06.985Z,29.70
2019-04-20T12:23:38.161Z,31.90
2019-04-20T12:26:08.915Z,30.20
2019-04-20T12:28:40.058Z,29.80
2019-04-20T12:31:16.527Z,30.00
2019-04-20T12:33:44.305Z,31.90
2019-04-20T12:36:14.480Z,30.50
2019-04-20T12:38:46.124Z,31.00
2019-04-20T12:41:17.943Z,31.60
2019-04-20T12:43:49.727Z,36.00
2019-04-20T12:46:21.757Z,31.80
2019-04-20T12:48:51.582Z,33.70
2019-04-20T12:51:25.189Z,32.00
2019-04-20T12:53:53.186Z,31.60
2019-04-20T12:56:24.378Z,30.50
2019-04-20T12:58:55.740Z,31.80
2019-04-20T13:01:25.944Z,32.30
2019-04-20T13:03:57.294Z,33.30
2019-04-20T13:06:28.111Z,33.30
2019-04-20T13:09:00.590Z,34.00
2019-04-20T13:11:44.146Z,34.30
2019-04-20T13:14:46.533Z,32.70
2019-04-20T13:17:16.814Z,34.20
2019-04-20T13:19:47.052Z,33.40
2019-04-20T13:22:17.314Z,33.70
2019-04-20T13:24:47.357Z,32.80
2019-04-20T13:27:18.719Z,36.10
2019-04-20T13:29:51.343Z,34.10
2019-04-20T13:32:21.194Z,33.40
2019-04-20T13:34:52.063Z,34.00
2019-04-20T13:37:23.114Z,33.70
2019-04-20T13:39:54.182Z,32.20
2019-04-20T13:42:27.911Z,34.30
2019-04-20T13:44:57.111Z,32.70
2019-04-20T13:47:28.352Z,33.20
2019-04-20T13:49:58.894Z,33.40
2019-04-20T13:52:28.976Z,34.10
2019-04-20T13:54:59.996Z,33.10
2019-04-20T13:57:37.982Z,34.00
2019-04-20T14:00:29.864Z,33.30
2019-04-20T14:03:05.162Z,33.60
2019-04-20T14:05:35.880Z,34.60
2019-04-20T14:08:11.644Z,32.60
2019-04-20T14:10:43.375Z,33.40
2019-04-20T14:13:17.032Z,33.70
2019-04-20T14:15:45.335Z,34.70
2019-04-20T14:18:15.298Z,32.00
2019-04-20T14:20:45.268Z,33.60
2019-04-20T14:23:15.283Z,33.90
2019-04-20T14:25:45.411Z,33.70
2019-04-20T14:28:15.517Z,33.60
2019-04-20T14:30:45.955Z,32.90
2019-04-20T14:33:17.125Z,33.30
2019-04-20T14:35:48.434Z,32.80
2019-04-20T14:38:18.422Z,32.30
2019-04-20T14:40:48.629Z,33.00
2019-04-20T14:43:19.366Z,32.50
2019-04-20T14:45:50.503Z,34.60
2019-04-20T14:48:20.776Z,34.20
2019-04-20T14:50:51.907Z,32.90
2019-04-20T14:53:23.281Z,32.70
2019-04-20T14:55:53.769Z,31.60
2019-04-20T14:58:43.907Z,31.90
2019-04-20T15:01:26.923Z,31.20
2019-04-20T15:04:04.826Z,31.90
2019-04-20T15:06:29.685Z,31.00
2019-04-20T15:09:01.017Z,33.00
2019-04-20T15:11:32.704Z,32.40
2019-04-20T15:14:02.720Z,31.30
2019-04-20T15:16:32.840Z,32.30
2019-04-20T15:19:21.193Z,32.30
2019-04-20T15:21:53.535Z,31.40
2019-04-20T15:24:23.834Z,32.00
2019-04-20T15:26:54.296Z,31.30
2019-04-20T15:29:24.453Z,30.80
2019-04-20T15:31:54.582Z,31.40
2019-04-20T15:34:24.788Z,32.20
2019-04-20T15:36:56.062Z,31.10
2019-04-20T15:39:27.255Z,31.40
2019-04-20T15:41:57.487Z,32.50
2019-04-20T15:44:27.401Z,33.30
2019-04-20T15:46:57.712Z,33.00
2019-04-20T15:49:28.386Z,32.80
2019-04-20T15:51:59.756Z,33.00
2019-04-20T15:54:33.886Z,32.20
2019-04-20T15:57:09.805Z,32.20
2019-04-20T15:59:38.128Z,31.70
2019-04-20T16:02:17.720Z,31.60
2019-04-20T16:05:19.623Z,31.30
2019-04-20T16:07:54.909Z,31.90
2019-04-20T16:10:21.688Z,33.10
2019-04-20T16:13:04.857Z,32.60
2019-04-20T16:15:23.707Z,32.50
2019-04-20T16:17:55.012Z,32.70
2019-04-20T16:20:27.559Z,33.60
2019-04-20T16:23:02.824Z,32.30
2019-04-20T16:25:43.577Z,32.60
2019-04-20T16:28:14.046Z,33.60
2019-04-20T16:30:47.551Z,33.60
2019-04-20T16:33:18.671Z,33.60
2019-04-20T16:35:49.931Z,33.40
2019-04-20T16:38:20.476Z,33.10
2019-04-20T16:40:50.720Z,33.50
2019-04-20T16:43:28.038Z,33.60
2019-04-20T16:45:52.987Z,33.80
2019-04-20T16:48:24.201Z,33.70
2019-04-20T16:50:55.153Z,34.10
2019-04-20T16:53:25.209Z,32.60
2019-04-20T16:55:55.170Z,34.10
2019-04-20T16:58:28.168Z,35.30
2019-04-20T17:00:59.283Z,35.60
2019-04-20T17:03:42.039Z,35.20
2019-04-20T17:06:02.471Z,35.50
2019-04-20T17:08:33.242Z,36.10
2019-04-20T17:11:03.549Z,35.60
2019-04-20T17:13:40.577Z,35.30
2019-04-20T17:16:05.906Z,35.20
2019-04-20T17:18:37.237Z,35.60
2019-04-20T17:21:14.678Z,35.30
2019-04-20T17:23:43.087Z,36.00
2019-04-20T17:26:12.821Z,36.60
2019-04-20T17:28:55.519Z,35.50
2019-04-20T17:31:43.200Z,35.20
2019-04-20T17:34:31.504Z,35.00
2019-04-20T17:36:48.491Z,35.30
2019-04-20T17:39:31.040Z,35.30
2019-04-20T17:42:11.752Z,35.30
2019-04-20T17:44:39.808Z,35.30
2019-04-20T17:47:29.109Z,35.70
2019-04-20T17:49:59.635Z,35.70
2019-04-20T17:52:38.434Z,36.10
2019-04-20T17:54:55.854Z,36.50
2019-04-20T17:57:25.961Z,36.70
2019-04-20T18:00:03.475Z,36.90
2019-04-20T18:02:58.986Z,36.80
2019-04-20T18:05:39.154Z,37.10
2019-04-20T18:08:15.383Z,37.60
2019-04-20T18:10:38.151Z,37.10
2019-04-20T18:12:58.658Z,37.30
2019-04-20T18:15:40.687Z,37.30
2019-04-20T18:18:32.201Z,37.20
2019-04-20T18:21:17.030Z,37.90
2019-04-20T18:23:49.653Z,37.40
2019-04-20T18:26:40.966Z,37.40
2019-04-20T18:29:10.428Z,37.20
2019-04-20T18:31:33.530Z,37.80
2019-04-20T18:34:13.145Z,38.20
2019-04-20T18:36:44.152Z,38.30
2019-04-20T18:39:16.159Z,37.90
2019-04-20T18:41:48.013Z,38.10
2019-04-20T18:44:20.209Z,38.60
2019-04-20T18:47:12.296Z,38.50
2019-04-20T18:49:36.072Z,38.90
2019-04-20T18:51:51.625Z,39.10
2019-04-20T18:54:26.523Z,39.70
2019-04-20T18:56:54.818Z,39.60
2019-04-20T18:59:34.465Z,39.10
2019-04-20T19:01:57.120Z,39.60
2019-04-20T19:04:27.990Z,39.20
2019-04-20T19:06:59.488Z,39.50
2019-04-20T19:09:32.010Z,40.30
2019-04-20T19:12:04.643Z,40.50
2019-04-20T19:15:03.418Z,40.40
2019-04-20T19:17:57.007Z,40.70
2019-04-20T19:20:32.911Z,41.00
2019-04-20T19:23:04.159Z,40.20
2019-04-20T19:25:37.504Z,40.80
2019-04-20T19:28:07.010Z,41.40
2019-04-20T19:30:47.037Z,41.50
2019-04-20T19:33:27.617Z,41.50
2019-04-20T19:35:52.226Z,41.70
2019-04-20T19:38:22.055Z,41.70
2019-04-20T19:40:56.487Z,42.60
2019-04-20T19:43:41.356Z,42.80
2019-04-20T19:46:43.242Z,42.00
2019-04-20T19:48:51.875Z,42.50
2019-04-20T19:51:36.114Z,42.50
2019-04-20T19:54:09.504Z,42.30
2019-04-20T19:56:38.560Z,43.30
2019-04-20T19:59:09.240Z,43.50
2019-04-20T20:04:42.536Z,43.90
2019-04-20T20:07:18.749Z,43.50
2019-04-20T20:09:49.777Z,43.90
2019-04-20T20:12:16.538Z,44.70
2019-04-20T20:14:49.241Z,44.30
2019-04-20T20:17:37.469Z,45.00
2019-04-20T20:20:14.905Z,44.60
2019-04-20T20:22:32.334Z,44.10
2019-04-20T20:24:52.787Z,45.90
2019-04-20T20:27:31.823Z,45.30
2019-04-20T20:30:04.162Z,45.30
2019-04-20T20:32:44.757Z,44.70
2019-04-20T20:35:05.619Z,45.00
2019-04-20T20:37:35.408Z,45.30
2019-04-20T20:40:10.166Z,45.20
2019-04-20T20:42:49.132Z,45.30
2019-04-20T20:45:18.789Z,45.30
2019-04-20T20:47:55.022Z,45.30
2019-04-20T20:50:33.704Z,44.30
2019-04-20T20:52:54.744Z,45.20
2019-04-20T20:55:26.553Z,45.30
2019-04-20T20:57:56.331Z,46.00
2019-04-20T21:00:32.079Z,45.40
2019-04-20T21:02:59.300Z,46.00
2019-04-20T21:05:23.928Z,47.20
2019-04-20T21:07:55.342Z,49.20
2019-04-20T21:10:31.909Z,50.00
2019-04-20T21:13:01.082Z,49.60
2019-04-20T21:15:30.270Z,50.90
2019-04-20T21:18:20.581Z,50.90
2019-04-20T21:20:49.250Z,50.50
2019-04-20T21:23:17.572Z,50.30
2019-04-20T21:25:45.751Z,49.30
2019-04-20T21:28:13.083Z,50.10
2019-04-20T21:30:46.494Z,50.20
2019-04-20T21:33:15.031Z,51.10
2019-04-20T21:35:49.859Z,51.20
2019-04-20T21:38:18.652Z,51.30
2019-04-20T21:40:51.298Z,51.00
2019-04-20T21:43:27.945Z,51.20
2019-04-20T21:45:58.355Z,50.80
2019-04-20T21:48:39.272Z,51.30
2019-04-20T21:51:08.593Z,50.90
2019-04-20T21:53:31.888Z,52.10
2019-04-20T21:55:59.780Z,52.20
2019-04-20T21:58:35.263Z,52.60
2019-04-20T22:01:14.985Z,51.60
2019-04-20T22:03:34.309Z,52.80
2019-04-20T22:06:06.787Z,52.50
2019-04-20T22:08:39.362Z,51.80
2019-04-20T22:11:09.606Z,52.20
2019-04-20T22:13:43.556Z,52.50
2019-04-20T22:16:13.196Z,52.20
2019-04-20T22:18:52.900Z,52.70
2019-04-20T22:21:22.755Z,52.80
2019-04-20T22:23:59.831Z,52.60
2019-04-20T22:26:29.664Z,52.80
2019-04-20T22:28:50.119Z,52.10
2019-04-20T22:31:22.287Z,52.40
2019-04-20T22:33:52.501Z,52.90
2019-04-20T22:36:24.850Z,53.90
2019-04-20T22:39:13.986Z,54.00
2019-04-20T22:41:59.120Z,53.40
2019-04-20T22:44:28.229Z,53.50
2019-04-20T22:46:56.612Z,53.10
2019-04-20T22:49:42.070Z,52.70
2019-04-20T22:52:07.486Z,53.60
2019-04-20T22:54:45.128Z,52.90
2019-04-20T22:57:11.796Z,54.60
2019-04-20T22:59:41.869Z,55.00
2019-04-20T23:02:06.526Z,55.10
2019-04-20T23:04:37.181Z,55.20
2019-04-20T23:07:08.618Z,55.40
2019-04-20T23:09:48.888Z,54.90
2019-04-20T23:12:17.593Z,55.00
2019-04-20T23:14:44.590Z,55.10
2019-04-20T23:17:18.474Z,55.60
2019-04-20T23:19:51.887Z,56.60
2019-04-20T23:22:19.190Z,57.30
2019-04-20T23:24:49.345Z,58.60
2019-04-20T23:27:25.539Z,58.70
2019-04-20T23:29:51.266Z,57.80
2019-04-20T23:32:22.497Z,57.40
2019-04-20T23:34:59.107Z,57.60
2019-04-20T23:37:31.200Z,57.00
2019-04-20T23:39:57.926Z,56.90
2019-04-20T23:42:40.846Z,56.90
2019-04-20T23:45:36.926Z,57.30
2019-04-20T23:48:08.493Z,58.00
2019-04-20T23:50:54.381Z,57.50
2019-04-20T23:53:28.457Z,58.40
2019-04-20T23:55:43.697Z,58.00
2019-04-20T23:58:14.673Z,59.90
